Time;durP1;ratioP1;P1;durP2;ratioP2;P2;SDS_P1;SDS_P2;PMS_P1;PMS_P2;Temp;Humidity;BMP_temperature;BMP_pressure;BME280_temperature;BME280_humidity;BME280_pressure;Samples;Min_cycle;Max_cycle;Signal;HPM_P1;HPM_P2
2022/06/25 00:01:06;;;;;;;2.10;1.80;;;22.80;66.40;;;;;;5070922;28;20483;-74
2022/06/25 00:03:32;;;;;;;2.00;1.90;;;22.80;66.40;;;;;;5070925;28;20040;-73
2022/06/25 00:05:58;;;;;;;4.03;2.33;;;22.80;66.40;;;;;;5071135;28;20044;-75
2022/06/25 00:08:23;;;;;;;1.85;1.75;;;22.80;66.50;;;;;;5070718;28;20044;-74
2022/06/25 00:10:49;;;;;;;1.50;1.40;;;22.80;66.40;;;;;;5071998;28;20043;-73
2022/06/25 00:13:15;;;;;;;1.83;1.73;;;22.80;66.40;;;;;;5070795;28;20519;-73
2022/06/25 00:15:41;;;;;;;2.97;2.10;;;22.80;66.50;;;;;;5070707;28;20043;-73
2022/06/25 00:18:09;;;;;;;1.50;1.40;;;22.80;67.20;;;;;;5072285;28;20388;-73
2022/06/25 00:20:35;;;;;;;2.03;1.92;;;22.80;66.50;;;;;;5070648;28;20052;-73
2022/06/25 00:23:01;;;;;;;1.88;1.65;;;22.70;66.40;;;;;;5070712;28;20040;-73
2022/06/25 00:25:27;;;;;;;2.45;1.35;;;22.70;66.40;;;;;;5070686;28;20090;-73
2022/06/25 00:27:52;;;;;;;1.52;1.42;;;22.70;66.40;;;;;;5070900;28;20080;-73
2022/06/25 00:30:18;;;;;;;1.55;1.45;;;22.70;66.40;;;;;;5070667;28;20488;-73
2022/06/25 00:32:44;;;;;;;2.35;1.98;;;22.70;66.40;;;;;;5070476;28;20044;-73
2022/06/25 00:35:11;;;;;;;2.33;1.75;;;22.80;66.50;;;;;;5070403;28;20061;-73
2022/06/25 00:37:36;;;;;;;2.92;1.90;;;22.70;66.40;;;;;;5070408;28;20040;-72
2022/06/25 00:40:03;;;;;;;2.10;1.90;;;22.70;66.40;;;;;;5070655;28;20090;-73
2022/06/25 00:42:29;;;;;;;2.03;1.90;;;22.70;66.40;;;;;;5070725;28;20087;-73
2022/06/25 00:44:56;;;;;;;1.70;1.60;;;22.70;66.40;;;;;;5070415;28;20076;-73
2022/06/25 00:47:22;;;;;;;2.40;1.45;;;22.70;66.40;;;;;;5070354;28;20541;-73
2022/06/25 00:49:48;;;;;;;2.28;1.83;;;22.70;66.40;;;;;;5070460;28;20041;-73
2022/06/25 00:52:17;;;;;;;1.63;1.52;;;22.70;66.40;;;;;;5070347;28;20123;-74
2022/06/25 00:54:50;;;;;;;3.78;1.90;;;22.70;66.40;;;;;;5070236;28;20076;-74
2022/06/25 00:57:20;;;;;;;3.03;1.92;;;22.70;66.40;;;;;;5070584;28;20032;-74
2022/06/25 00:59:47;;;;;;;;;;;22.70;66.40;;;;;;5071063;28;20489;-74
2022/06/25 01:02:16;;;;;;;4.38;2.15;;;22.60;66.30;;;;;;5087035;28;20011;-74
2022/06/25 01:04:42;;;;;;;2.20;1.20;;;22.60;66.30;;;;;;5070309;28;20040;-72
2022/06/25 01:07:08;;;;;;;2.72;1.55;;;22.60;66.30;;;;;;5071494;28;20033;-74
2022/06/25 01:09:39;;;;;;;2.35;1.35;;;22.60;66.30;;;;;;5071396;28;20047;-73
2022/06/25 01:12:04;;;;;;;;;;;22.60;66.30;;;;;;5070644;28;20481;-74
2022/06/25 01:14:30;;;;;;;1.27;1.17;;;22.60;66.30;;;;;;5070071;28;19923;-73
2022/06/25 01:16:56;;;;;;;2.08;1.52;;;22.60;66.30;;;;;;5070221;28;20083;-73
2022/06/25 01:19:21;;;;;;;1.30;1.20;;;22.60;66.30;;;;;;5070035;28;20036;-73
2022/06/25 01:21:47;;;;;;;1.48;1.35;;;22.60;66.40;;;;;;5071458;28;20029;-73
2022/06/25 01:24:13;;;;;;;1.30;1.13;;;22.50;66.30;;;;;;5069934;28;20645;-74
2022/06/25 01:26:40;;;;;;;1.92;1.30;;;22.60;66.30;;;;;;5070111;28;20083;-73
2022/06/25 01:29:07;;;;;;;1.23;1.13;;;22.60;66.30;;;;;;5071484;28;20040;-74
2022/06/25 01:31:33;;;;;;;1.55;1.45;;;22.50;66.20;;;;;;5070040;28;20044;-73
2022/06/25 01:33:59;;;;;;;2.25;1.25;;;22.50;66.20;;;;;;5069951;28;20059;-73
2022/06/25 01:36:25;;;;;;;1.50;1.23;;;22.50;66.30;;;;;;5069674;28;20045;-73
2022/06/25 01:38:51;;;;;;;1.40;1.30;;;22.50;66.20;;;;;;5069826;28;20484;-74
2022/06/25 01:41:17;;;;;;;1.92;1.00;;;22.50;66.20;;;;;;5069955;28;20035;-74
2022/06/25 01:43:43;;;;;;;1.42;1.33;;;22.50;66.20;;;;;;5073905;28;20740;-73
2022/06/25 01:46:09;;;;;;;1.30;1.17;;;22.50;66.20;;;;;;5073808;28;20045;-74
2022/06/25 01:48:35;;;;;;;1.38;1.27;;;22.50;66.20;;;;;;5073371;28;20040;-74
2022/06/25 01:51:01;;;;;;;1.15;1.02;;;22.50;66.20;;;;;;5073460;28;20055;-73
2022/06/25 01:53:27;;;;;;;1.40;1.30;;;22.50;66.20;;;;;;5074544;28;20037;-74
2022/06/25 01:55:53;;;;;;;1.55;1.15;;;22.50;66.20;;;;;;5073275;28;20048;-73
2022/06/25 01:58:19;;;;;;;1.67;1.30;;;22.50;66.20;;;;;;5073271;28;20051;-74
2022/06/25 02:00:45;;;;;;;1.40;1.30;;;22.40;66.20;;;;;;5073243;28;20043;-73
2022/06/25 02:03:12;;;;;;;1.77;1.33;;;22.40;66.20;;;;;;5074511;28;20116;-74
2022/06/25 02:06:09;;;;;;;1.52;1.42;;;22.40;66.20;;;;;;5073381;28;20041;-74
2022/06/25 02:08:33;;;;;;;1.30;1.17;;;22.40;66.20;;;;;;5073095;28;20056;-74
2022/06/25 02:11:00;;;;;;;1.42;1.30;;;22.40;66.20;;;;;;5074316;28;20091;-74
2022/06/25 02:13:26;;;;;;;2.60;1.23;;;22.40;66.20;;;;;;5073291;28;20075;-74
2022/06/25 02:15:53;;;;;;;1.70;1.60;;;22.40;66.20;;;;;;5074154;28;20365;-74
2022/06/25 02:18:19;;;;;;;1.10;0.70;;;22.40;66.20;;;;;;5073232;28;20036;-73
2022/06/25 02:20:45;;;;;;;1.27;1.05;;;22.40;66.20;;;;;;5072754;28;20040;-73
2022/06/25 02:23:12;;;;;;;1.52;0.90;;;22.40;66.20;;;;;;5073048;28;20041;-73
2022/06/25 02:25:38;;;;;;;1.58;1.42;;;22.40;66.30;;;;;;5073011;28;20048;-75
2022/06/25 02:28:04;;;;;;;2.03;1.30;;;22.40;66.20;;;;;;5072739;28;20040;-73
2022/06/25 02:30:30;;;;;;;1.45;1.20;;;22.40;66.20;;;;;;5072681;28;20052;-73
2022/06/25 02:32:55;;;;;;;2.10;1.38;;;22.40;66.20;;;;;;5072609;28;20048;-72
2022/06/25 02:35:21;;;;;;;1.95;1.00;;;22.30;66.20;;;;;;5072245;28;20045;-74
2022/06/25 02:37:47;;;;;;;1.13;1.02;;;22.30;66.10;;;;;;5089610;28;20110;-73
2022/06/25 02:40:12;;;;;;;1.38;1.27;;;22.40;66.20;;;;;;5072723;28;20049;-74
2022/06/25 02:42:39;;;;;;;1.20;1.10;;;22.30;66.10;;;;;;5072689;28;20068;-74
2022/06/25 02:45:09;;;;;;;1.40;1.27;;;22.30;66.10;;;;;;5089189;28;20033;-73
2022/06/25 02:47:35;;;;;;;1.67;1.27;;;22.30;66.10;;;;;;5073761;28;20040;-73
2022/06/25 02:50:04;;;;;;;1.10;1.00;;;22.30;66.10;;;;;;5072616;28;20447;-74
2022/06/25 02:52:30;;;;;;;1.15;1.05;;;22.30;66.10;;;;;;5073440;28;20499;-73
2022/06/25 02:54:56;;;;;;;1.17;1.02;;;22.30;66.10;;;;;;5072200;28;20119;-74
2022/06/25 03:00:08;;;;;;;1.15;1.05;;;22.30;66.10;;;;;;5072230;28;20400;-73
2022/06/25 03:02:34;;;;;;;1.13;0.82;;;22.30;66.10;;;;;;5072021;28;20036;-73
2022/06/25 03:05:00;;;;;;;1.52;1.40;;;22.30;66.10;;;;;;5072228;28;20067;-73
2022/06/25 03:07:26;;;;;;;1.45;0.90;;;22.30;66.00;;;;;;5072180;28;20388;-73
2022/06/25 03:09:51;;;;;;;1.98;1.00;;;22.30;66.10;;;;;;5072120;28;20044;-74
2022/06/25 03:12:17;;;;;;;1.05;0.90;;;22.30;66.00;;;;;;5071790;28;20615;-73
2022/06/25 03:14:43;;;;;;;1.73;0.80;;;22.30;66.10;;;;;;5073040;28;20029;-73
2022/06/25 03:17:09;;;;;;;1.20;1.00;;;22.30;66.00;;;;;;5071790;28;20469;-74
2022/06/25 03:19:35;;;;;;;0.93;0.80;;;22.30;66.00;;;;;;5071932;28;20059;-74
2022/06/25 03:22:01;;;;;;;1.98;0.90;;;22.30;66.00;;;;;;5071663;28;20045;-73
2022/06/25 03:24:27;;;;;;;1.20;1.10;;;22.30;65.90;;;;;;5071818;28;20089;-73
2022/06/25 03:26:53;;;;;;;1.02;0.85;;;22.20;65.90;;;;;;5072835;28;20071;-73
2022/06/25 03:29:19;;;;;;;1.75;1.10;;;22.20;65.90;;;;;;5071636;28;20086;-73
2022/06/25 03:31:45;;;;;;;1.67;0.90;;;22.20;65.90;;;;;;5071685;28;20047;-73
2022/06/25 03:34:11;;;;;;;1.48;1.27;;;22.20;65.90;;;;;;5072775;28;20071;-74
2022/06/25 03:36:37;;;;;;;1.67;0.95;;;22.20;65.90;;;;;;5071065;28;20088;-73
2022/06/25 03:39:03;;;;;;;1.55;1.17;;;22.20;65.90;;;;;;5071359;28;20396;-73
2022/06/25 03:41:32;;;;;;;1.10;0.90;;;22.20;65.80;;;;;;5071326;28;20135;-73
2022/06/25 03:43:59;;;;;;;1.10;1.00;;;22.20;65.80;;;;;;5071115;28;20037;-73
2022/06/25 03:46:25;;;;;;;1.92;1.05;;;22.20;65.80;;;;;;5072502;28;20049;-71
2022/06/25 03:48:53;;;;;;;1.33;1.05;;;22.20;65.80;;;;;;5071358;28;20040;-74
2022/06/25 03:51:19;;;;;;;1.02;0.77;;;22.30;65.90;;;;;;5071148;28;20056;-73
2022/06/25 03:53:45;;;;;;;1.27;1.17;;;22.20;65.80;;;;;;5072494;28;20037;-74
2022/06/25 03:56:11;;;;;;;1.00;0.88;;;22.20;65.80;;;;;;5071072;28;20074;-73
2022/06/25 03:58:38;;;;;;;1.15;0.80;;;22.20;65.80;;;;;;5072264;28;20044;-73
2022/06/25 04:01:04;;;;;;;1.35;1.05;;;22.20;65.80;;;;;;5071225;28;20123;-73
2022/06/25 04:03:30;;;;;;;1.25;0.90;;;22.20;65.80;;;;;;5072161;28;20040;-73
2022/06/25 04:05:57;;;;;;;1.20;0.82;;;22.20;65.70;;;;;;5070481;28;20413;-74
2022/06/25 04:08:23;;;;;;;1.30;0.90;;;22.20;65.70;;;;;;5070797;28;20062;-73
2022/06/25 04:10:48;;;;;;;1.00;0.90;;;22.20;65.70;;;;;;5072119;28;20040;-72
2022/06/25 04:13:14;;;;;;;1.02;0.70;;;22.20;65.70;;;;;;5072168;28;20484;-73
2022/06/25 04:15:41;;;;;;;1.70;0.93;;;22.20;65.70;;;;;;5070716;28;20480;-74
2022/06/25 04:18:07;;;;;;;1.33;0.90;;;22.10;65.60;;;;;;5071033;28;20059;-73
2022/06/25 04:20:35;;;;;;;2.55;0.68;;;22.20;65.70;;;;;;5071821;28;20036;-73
2022/06/25 04:23:01;;;;;;;1.58;0.82;;;22.20;65.60;;;;;;5070977;28;20032;-73
2022/06/25 04:25:27;;;;;;;2.08;0.70;;;22.10;65.50;;;;;;5070866;28;20538;-74
2022/06/25 04:30:38;;;;;;;1.35;0.73;;;22.20;65.50;;;;;;5070688;28;20059;-74
2022/06/25 04:33:04;;;;;;;1.17;0.70;;;22.20;65.50;;;;;;5070756;28;20462;-73
2022/06/25 04:35:29;;;;;;;1.30;0.93;;;22.20;65.40;;;;;;5070233;28;20048;-73
2022/06/25 04:37:55;;;;;;;1.88;1.00;;;22.10;65.30;;;;;;5070565;28;20040;-73
2022/06/25 04:40:23;;;;;;;1.10;0.70;;;22.10;65.30;;;;;;5070397;28;20036;-73
2022/06/25 04:42:49;;;;;;;0.85;0.60;;;22.20;65.40;;;;;;5070757;28;20040;-74
2022/06/25 04:45:15;;;;;;;1.48;1.00;;;22.20;65.30;;;;;;5070642;28;20387;-74
2022/06/25 04:47:40;;;;;;;1.40;0.98;;;22.20;65.40;;;;;;5070703;28;20479;-74
2022/06/25 04:50:07;;;;;;;1.27;0.70;;;22.20;65.30;;;;;;5070330;28;20049;-74
2022/06/25 04:52:33;;;;;;;1.17;0.77;;;22.20;65.30;;;;;;5070581;28;20044;-74
2022/06/25 04:54:59;;;;;;;1.00;0.80;;;22.20;65.30;;;;;;5070697;28;20045;-74
2022/06/25 04:57:25;;;;;;;1.52;1.42;;;22.20;65.20;;;;;;5070648;28;20036;-73
2022/06/25 04:59:50;;;;;;;0.70;0.60;;;22.20;65.20;;;;;;5070338;28;20408;-73
2022/06/25 05:02:16;;;;;;;0.98;0.80;;;22.20;65.20;;;;;;5070556;28;20037;-74
2022/06/25 05:04:42;;;;;;;0.90;0.50;;;22.20;65.30;;;;;;5070204;28;20506;-74
2022/06/25 05:07:07;;;;;;;1.27;0.63;;;22.20;65.10;;;;;;5070269;28;20052;-74
2022/06/25 05:09:33;;;;;;;1.00;0.80;;;22.20;65.10;;;;;;5070539;28;20040;-74
2022/06/25 05:11:58;;;;;;;0.70;0.50;;;22.20;65.20;;;;;;5070206;28;20155;-74
2022/06/25 05:14:24;;;;;;;0.82;0.47;;;22.20;65.10;;;;;;5071453;28;20098;-73
2022/06/25 05:16:50;;;;;;;0.88;0.60;;;22.20;65.10;;;;;;5070087;28;20429;-73
2022/06/25 05:19:15;;;;;;;1.05;0.70;;;22.20;65.10;;;;;;5073995;28;20109;-73
2022/06/25 05:21:41;;;;;;;0.80;0.60;;;22.20;65.10;;;;;;5074186;28;20064;-74
2022/06/25 05:24:07;;;;;;;1.00;0.60;;;22.20;65.10;;;;;;5074196;28;20477;-74
2022/06/25 05:26:33;;;;;;;0.75;0.50;;;22.20;65.00;;;;;;5073986;28;20090;-73
2022/06/25 05:28:59;;;;;;;1.10;0.52;;;22.20;65.10;;;;;;5074097;28;20388;-74
2022/06/25 05:31:24;;;;;;;1.00;0.60;;;22.20;65.00;;;;;;5073941;28;20051;-73
2022/06/25 05:33:50;;;;;;;1.60;0.52;;;22.20;64.90;;;;;;5073975;28;20548;-73
2022/06/25 05:36:16;;;;;;;1.60;0.60;;;22.20;64.90;;;;;;5073245;28;20626;-73
2022/06/25 05:38:42;;;;;;;1.35;0.52;;;22.20;64.90;;;;;;5073651;28;20123;-73
2022/06/25 05:41:08;;;;;;;0.90;0.70;;;22.20;64.90;;;;;;5073669;28;20158;-73
2022/06/25 05:43:36;;;;;;;1.35;0.80;;;22.10;64.80;;;;;;5074777;28;20131;-73
2022/06/25 05:46:02;;;;;;;1.60;0.60;;;22.20;64.90;;;;;;5073477;28;20123;-74
2022/06/25 05:48:29;;;;;;;0.93;0.60;;;22.20;64.80;;;;;;5073681;28;20106;-74
2022/06/25 05:50:55;;;;;;;1.23;0.80;;;22.20;64.80;;;;;;5073439;28;20049;-74
2022/06/25 05:53:20;;;;;;;1.05;0.60;;;22.20;64.80;;;;;;5074605;28;20066;-74
2022/06/25 05:55:46;;;;;;;1.10;0.70;;;22.20;64.70;;;;;;5073290;28;20547;-74
2022/06/25 05:58:12;;;;;;;0.77;0.60;;;22.20;64.70;;;;;;5074524;28;20044;-73
2022/06/25 06:00:39;;;;;;;0.47;0.30;;;22.20;64.70;;;;;;5074690;28;20056;-74
2022/06/25 06:03:04;;;;;;;0.80;0.57;;;22.20;64.70;;;;;;5073429;28;20044;-73
2022/06/25 06:05:31;;;;;;;0.95;0.70;;;22.20;64.60;;;;;;5073112;28;20041;-72
2022/06/25 06:07:56;;;;;;;1.10;0.60;;;22.20;64.60;;;;;;5073276;28;20044;-74
2022/06/25 06:10:22;;;;;;;0.80;0.60;;;22.20;64.60;;;;;;5074464;28;20472;-74
2022/06/25 06:12:48;;;;;;;1.05;0.60;;;22.20;64.60;;;;;;5073034;28;20036;-73
2022/06/25 06:15:14;;;;;;;0.70;0.55;;;22.20;64.50;;;;;;5074609;28;20095;-74
2022/06/25 06:17:39;;;;;;;2.03;0.65;;;22.20;64.60;;;;;;5073898;28;20484;-74
2022/06/25 06:20:06;;;;;;;0.63;0.43;;;22.20;64.50;;;;;;5072994;28;20041;-74
2022/06/25 06:22:31;;;;;;;1.73;0.50;;;22.20;64.50;;;;;;5074076;28;20053;-74
2022/06/25 06:24:57;;;;;;;1.23;0.50;;;22.20;64.50;;;;;;5074042;28;20098;-73
2022/06/25 06:27:23;;;;;;;1.48;0.65;;;22.30;64.50;;;;;;5074159;28;20044;-73
2022/06/25 06:29:48;;;;;;;0.93;0.52;;;22.20;64.30;;;;;;5072367;28;20048;-73
2022/06/25 06:32:14;;;;;;;0.85;0.50;;;22.20;64.30;;;;;;5072645;28;20037;-73
2022/06/25 06:34:40;;;;;;;0.82;0.50;;;22.20;64.20;;;;;;5072317;28;20066;-72
2022/06/25 06:37:05;;;;;;;0.70;0.50;;;22.30;64.30;;;;;;5072376;28;20060;-73
2022/06/25 06:39:31;;;;;;;0.90;0.63;;;22.30;64.20;;;;;;5072773;28;20052;-73
2022/06/25 06:41:57;;;;;;;1.40;0.60;;;22.30;64.30;;;;;;5072022;28;20500;-73
2022/06/25 06:44:22;;;;;;;0.60;0.40;;;22.30;64.20;;;;;;5072611;28;20043;-73
2022/06/25 06:46:48;;;;;;;1.15;0.60;;;22.30;64.10;;;;;;5073691;28;20082;-73
2022/06/25 06:49:14;;;;;;;0.90;0.40;;;22.30;64.10;;;;;;5072316;28;20047;-73
2022/06/25 06:51:39;;;;;;;1.80;0.70;;;22.30;64.10;;;;;;5072310;28;20047;-74
2022/06/25 06:54:05;;;;;;;2.15;0.50;;;22.30;64.00;;;;;;5073441;28;20049;-73
2022/06/25 06:56:30;;;;;;;1.02;0.40;;;22.30;63.90;;;;;;5072157;28;20041;-73
2022/06/25 06:58:57;;;;;;;1.15;0.60;;;22.40;63.90;;;;;;5072148;28;20132;-72
2022/06/25 07:01:22;;;;;;;0.88;0.40;;;22.40;63.80;;;;;;5073416;28;20041;-72
2022/06/25 07:03:48;;;;;;;0.80;0.40;;;22.40;63.80;;;;;;5073371;28;20086;-74
2022/06/25 07:06:17;;;;;;;2.63;0.55;;;22.40;63.70;;;;;;5072019;28;20381;-73
2022/06/25 07:08:42;;;;;;;1.02;0.45;;;22.40;63.60;;;;;;5072209;28;20044;-73
2022/06/25 07:11:39;;;;;;;0.88;0.50;;;22.40;63.60;;;;;;5072149;28;20384;-73
2022/06/25 07:13:56;;;;;;;0.50;0.30;;;22.40;63.60;;;;;;5071764;28;20105;-73
2022/06/25 07:16:21;;;;;;;1.83;0.90;;;22.40;63.60;;;;;;5071746;28;20094;-73
2022/06/25 07:18:47;;;;;;;0.73;0.50;;;22.40;63.60;;;;;;5072011;28;20044;-72
2022/06/25 07:21:13;;;;;;;1.17;0.60;;;22.40;63.50;;;;;;5072853;28;20484;-73
2022/06/25 07:23:39;;;;;;;1.52;0.50;;;22.40;63.50;;;;;;5072953;28;20040;-72
2022/06/25 07:26:05;;;;;;;0.80;0.50;;;22.40;63.40;;;;;;5071853;28;20392;-73
2022/06/25 07:28:31;;;;;;;1.13;0.40;;;22.40;63.30;;;;;;5073046;28;20496;-73
2022/06/25 07:30:56;;;;;;;0.98;0.50;;;22.40;63.30;;;;;;5071480;28;20403;-72
2022/06/25 07:33:22;;;;;;;1.23;0.40;;;22.50;63.20;;;;;;5071339;28;20044;-72
2022/06/25 07:35:51;;;;;;;1.15;0.40;;;22.50;63.20;;;;;;5071136;28;20052;-72
2022/06/25 07:38:19;;;;;;;1.05;0.60;;;22.50;63.20;;;;;;5071605;28;20119;-73
2022/06/25 07:40:45;;;;;;;2.10;0.40;;;22.50;63.10;;;;;;5070603;28;20548;-73
2022/06/25 07:43:10;;;;;;;0.70;0.50;;;22.50;63.00;;;;;;5071235;28;20044;-73
2022/06/25 07:45:36;;;;;;;0.80;0.40;;;22.50;63.00;;;;;;5071473;28;20044;-73
2022/06/25 07:48:02;;;;;;;0.98;0.50;;;22.50;63.00;;;;;;5071212;28;20040;-72
2022/06/25 07:53:16;;;;;;;0.70;0.50;;;22.50;62.90;;;;;;5069590;28;20076;-72
2022/06/25 07:55:42;;;;;;;2.35;0.45;;;22.50;62.90;;;;;;5070905;28;20083;-72
2022/06/25 07:58:08;;;;;;;1.38;0.88;;;22.50;62.80;;;;;;5071068;28;20036;-73
2022/06/25 08:00:33;;;;;;;0.68;0.32;;;22.50;62.70;;;;;;5070992;28;20032;-71
2022/06/25 08:03:01;;;;;;;0.73;0.43;;;22.50;62.70;;;;;;5071028;28;20094;-72
2022/06/25 08:05:27;;;;;;;0.50;0.30;;;22.50;62.60;;;;;;5070967;28;20052;-72
2022/06/25 08:07:54;;;;;;;2.45;0.43;;;22.60;62.70;;;;;;5071112;28;20052;-71
2022/06/25 08:10:20;;;;;;;0.93;0.52;;;22.60;62.50;;;;;;5070885;28;20076;-73
2022/06/25 08:12:46;;;;;;;1.13;0.30;;;22.60;62.40;;;;;;5070778;28;20036;-72
2022/06/25 08:15:12;;;;;;;0.85;0.40;;;22.60;62.30;;;;;;5072112;28;20044;-72
2022/06/25 08:17:38;;;;;;;0.80;0.45;;;22.70;62.30;;;;;;5070802;28;20074;-72
2022/06/25 08:20:04;;;;;;;1.70;0.30;;;22.70;62.20;;;;;;5070920;28;20040;-72
2022/06/25 08:22:30;;;;;;;1.65;0.40;;;22.70;62.10;;;;;;5070933;28;20037;-71
2022/06/25 08:24:56;;;;;;;0.50;0.40;;;22.70;62.00;;;;;;5071993;28;20037;-72
2022/06/25 08:27:22;;;;;;;0.70;0.38;;;22.80;61.90;;;;;;5070888;28;20191;-72
2022/06/25 08:29:48;;;;;;;0.50;0.30;;;22.80;61.80;;;;;;5071931;28;20044;-72
2022/06/25 08:32:13;;;;;;;1.88;0.40;;;22.80;61.70;;;;;;5071793;28;20051;-72
2022/06/25 08:34:39;;;;;;;1.45;0.30;;;22.90;61.60;;;;;;5070549;28;20105;-71
2022/06/25 08:37:05;;;;;;;1.35;0.40;;;22.90;61.40;;;;;;5070226;28;20045;-71
2022/06/25 08:39:31;;;;;;;0.90;0.47;;;22.90;61.30;;;;;;5070832;28;20033;-72
2022/06/25 08:42:00;;;;;;;1.17;0.40;;;23.00;61.20;;;;;;5071804;28;20051;-71
2022/06/25 08:44:26;;;;;;;2.05;0.35;;;23.10;61.10;;;;;;5070501;28;20037;-71
2022/06/25 08:46:52;;;;;;;0.73;0.52;;;23.10;60.80;;;;;;5070711;28;20165;-71
2022/06/25 08:49:19;;;;;;;0.80;0.32;;;23.20;60.60;;;;;;5070661;28;20052;-71
2022/06/25 08:51:46;;;;;;;0.50;0.30;;;23.30;60.20;;;;;;5072272;28;20423;-72
2022/06/25 08:54:13;;;;;;;1.15;0.43;;;23.40;59.90;;;;;;5075725;28;20044;-72
2022/06/25 08:56:39;;;;;;;0.70;0.38;;;23.50;59.70;;;;;;5074547;28;20079;-72
2022/06/25 08:59:05;;;;;;;0.68;0.32;;;23.60;59.60;;;;;;5075755;28;20032;-71
2022/06/25 09:01:31;;;;;;;0.45;0.30;;;23.70;59.30;;;;;;5074423;28;20403;-72
2022/06/25 09:03:59;;;;;;;0.40;0.20;;;23.90;58.90;;;;;;5074249;28;20048;-71
2022/06/25 09:06:25;;;;;;;3.05;0.55;;;24.10;58.40;;;;;;5074582;28;20063;-71
2022/06/25 09:09:12;;;;;;;0.65;0.40;;;24.30;57.70;;;;;;5074203;28;20040;-72
2022/06/25 09:12:04;;;;;;;0.95;0.50;;;24.60;57.60;;;;;;5074426;28;20044;-71
2022/06/25 09:14:31;;;;;;;0.80;0.40;;;24.70;56.80;;;;;;5075253;28;20044;-71
2022/06/25 09:19:40;;;;;;;1.10;0.40;;;24.70;56.30;;;;;;5144547;27;1395468;-72
2022/06/25 09:22:09;;;;;;;1.05;0.30;;;24.90;56.00;;;;;;5153173;27;20046;-72
2022/06/25 09:24:46;;;;;;;0.80;0.30;;;24.90;55.80;;;;;;5153260;27;20038;-72
2022/06/25 09:27:13;;;;;;;0.35;0.20;;;25.00;55.80;;;;;;5153258;27;20389;-72
2022/06/25 09:29:43;;;;;;;0.98;0.30;;;25.00;55.70;;;;;;5152992;27;20050;-72
2022/06/25 09:32:10;;;;;;;1.95;0.40;;;25.00;55.60;;;;;;5152933;27;20035;-71
2022/06/25 09:34:37;;;;;;;1.23;0.50;;;25.00;55.60;;;;;;5153104;27;20053;-72
2022/06/25 09:37:24;;;;;;;0.55;0.30;;;25.00;55.60;;;;;;5153165;27;20391;-70
2022/06/25 09:39:51;;;;;;;0.90;0.38;;;25.00;55.80;;;;;;5152908;27;20043;-70
2022/06/25 09:42:34;;;;;;;1.30;0.35;;;24.90;55.60;;;;;;5152812;27;20031;-71
2022/06/25 09:47:44;;;;;;;0.90;0.30;;;25.00;55.80;;;;;;5130339;27;20387;-72
2022/06/25 09:50:13;;;;;;;0.50;0.30;;;25.00;55.60;;;;;;5146404;27;20032;-71
2022/06/25 09:52:51;;;;;;;2.47;0.40;;;24.90;55.70;;;;;;5129043;28;20103;-72
2022/06/25 09:55:18;;;;;;;1.45;0.30;;;24.80;56.10;;;;;;5129095;27;20047;-72
2022/06/25 09:57:45;;;;;;;0.50;0.30;;;24.70;56.30;;;;;;5128931;28;20043;-72
2022/06/25 10:00:11;;;;;;;1.10;0.52;;;24.60;56.90;;;;;;5146223;27;20092;-71
2022/06/25 10:02:44;;;;;;;2.70;0.30;;;24.50;56.60;;;;;;5128833;28;20047;-71
2022/06/25 10:05:11;;;;;;;0.50;0.30;;;24.60;56.60;;;;;;5129901;27;20076;-71
2022/06/25 10:08:12;;;;;;;0.80;0.40;;;24.60;56.50;;;;;;5130029;27;20084;-72
2022/06/25 10:10:30;;;;;;;0.65;0.30;;;24.50;56.60;;;;;;5128390;28;20104;-72
2022/06/25 10:12:56;;;;;;;0.95;0.38;;;24.50;56.90;;;;;;5128913;27;20046;-71
2022/06/25 10:15:23;;;;;;;1.33;0.35;;;24.50;57.00;;;;;;5128657;27;20043;-71
2022/06/25 10:17:52;;;;;;;0.93;0.40;;;24.50;57.00;;;;;;5128738;28;20039;-72
2022/06/25 10:20:18;;;;;;;2.10;0.32;;;24.50;56.90;;;;;;5128621;28;20118;-71
2022/06/25 10:22:45;;;;;;;0.73;0.20;;;24.60;56.80;;;;;;5128660;28;20510;-72
2022/06/25 10:25:15;;;;;;;0.80;0.22;;;24.60;56.60;;;;;;5128266;28;20547;-72
2022/06/25 10:27:43;;;;;;;1.27;0.20;;;24.60;56.60;;;;;;5128596;27;20069;-72
2022/06/25 10:30:10;;;;;;;0.40;0.20;;;24.60;56.60;;;;;;5128475;28;20043;-70
2022/06/25 10:32:47;;;;;;;0.75;0.20;;;24.60;56.50;;;;;;5129469;27;20047;-72
2022/06/25 10:35:31;;;;;;;1.33;0.30;;;24.60;56.50;;;;;;5128420;28;20035;-71
2022/06/25 10:40:56;;;;;;;1.27;0.30;;;24.60;56.50;;;;;;5101673;27;20390;-70
2022/06/25 10:51:44;;;;;;;0.43;0.30;;;24.60;56.50;;;;;;5152705;27;1167543;-70
2022/06/25 10:57:04;;;;;;;1.23;0.20;;;24.40;57.00;;;;;;5130381;27;20411;-71
2022/06/25 11:02:15;;;;;;;0.85;0.30;;;24.40;57.10;;;;;;5130249;27;20358;-70
2022/06/25 11:04:48;;;;;;;2.20;0.40;;;24.40;57.20;;;;;;5129251;28;20062;-71
2022/06/25 11:07:17;;;;;;;1.80;0.30;;;24.40;57.20;;;;;;5128931;28;20074;-70
2022/06/25 11:10:00;;;;;;;1.67;0.35;;;24.40;57.20;;;;;;5128943;28;20123;-71
2022/06/25 11:12:28;;;;;;;0.50;0.20;;;24.40;57.20;;;;;;5129051;28;20070;-67
2022/06/25 11:17:39;;;;;;;0.57;0.28;;;24.40;57.30;;;;;;5130194;27;20767;-69
2022/06/25 11:20:09;;;;;;;0.60;0.20;;;24.40;57.30;;;;;;5129066;28;20035;-69
2022/06/25 11:22:52;;;;;;;0.65;0.30;;;24.40;57.30;;;;;;5129053;28;20043;-70
2022/06/25 11:29:09;;;;;;;0.35;0.20;;;24.30;57.40;;;;;;5128932;28;20502;-70
2022/06/25 11:30:53;;;;;;;0.60;0.20;;;24.30;57.50;;;;;;5128649;28;20055;-70
2022/06/25 11:33:19;;;;;;;0.90;0.20;;;24.30;57.60;;;;;;5128628;28;20035;-71
2022/06/25 11:35:45;;;;;;;1.10;0.28;;;24.30;57.70;;;;;;5128935;28;20031;-71
2022/06/25 11:38:17;;;;;;;1.33;0.20;;;24.20;57.80;;;;;;5128897;28;20043;-69
2022/06/25 11:40:43;;;;;;;0.80;0.30;;;24.20;57.80;;;;;;5128940;28;20368;-70
2022/06/25 11:43:09;;;;;;;0.70;0.20;;;24.20;57.80;;;;;;5129801;27;20038;-71
2022/06/25 11:45:56;;;;;;;0.95;0.10;;;24.20;57.90;;;;;;5128503;28;20555;-70
2022/06/25 11:48:31;;;;;;;0.70;0.20;;;24.20;57.90;;;;;;5128667;28;20054;-71
2022/06/25 11:51:00;;;;;;;0.40;0.28;;;24.10;57.90;;;;;;5128719;28;20383;-71
2022/06/25 11:53:29;;;;;;;0.40;0.20;;;24.20;58.00;;;;;;5128323;27;20047;-71
2022/06/25 11:56:03;;;;;;;0.57;0.20;;;24.20;58.00;;;;;;5128236;28;20040;-71
2022/06/25 11:58:31;;;;;;;0.50;0.30;;;24.20;57.90;;;;;;5111865;28;20043;-71
2022/06/25 12:00:58;;;;;;;0.40;0.20;;;24.20;57.80;;;;;;5128436;27;20032;-71
2022/06/25 12:03:27;;;;;;;0.55;0.20;;;24.20;57.80;;;;;;5129383;27;20168;-71
2022/06/25 12:05:58;;;;;;;0.40;0.20;;;24.30;57.80;;;;;;5128193;28;20517;-69
2022/06/25 12:08:27;;;;;;;0.50;0.20;;;24.20;57.80;;;;;;5128427;28;20046;-71
2022/06/25 12:10:55;;;;;;;0.47;0.20;;;24.20;57.80;;;;;;5128245;28;20390;-70
2022/06/25 12:13:22;;;;;;;0.93;0.20;;;24.20;57.90;;;;;;5129334;27;20078;-71
2022/06/25 12:15:56;;;;;;;1.33;0.20;;;24.20;58.00;;;;;;5128902;27;20051;-69
2022/06/25 12:21:18;;;;;;;0.50;0.28;;;24.20;58.00;;;;;;5130224;27;20353;-71
2022/06/25 12:23:59;;;;;;;0.40;0.20;;;24.10;58.00;;;;;;5146253;27;20055;-71
2022/06/25 12:26:28;;;;;;;0.80;0.30;;;24.10;58.20;;;;;;5125516;28;20062;-70
2022/06/25 12:29:07;;;;;;;0.40;0.20;;;24.00;58.20;;;;;;5111274;28;20051;-70
2022/06/25 12:31:32;;;;;;;0.40;0.20;;;24.00;58.30;;;;;;5122495;28;20043;-69
2022/06/25 12:34:01;;;;;;;0.50;0.20;;;24.10;58.40;;;;;;5111410;28;20101;-70
2022/06/25 12:36:27;;;;;;;0.47;0.30;;;24.10;58.40;;;;;;5108374;28;20051;-70
2022/06/25 12:38:52;;;;;;;1.65;0.20;;;24.00;58.40;;;;;;5108247;28;20100;-70
2022/06/25 12:41:18;;;;;;;0.93;0.20;;;24.10;58.40;;;;;;5108320;28;20084;-69
2022/06/25 12:43:48;;;;;;;0.40;0.20;;;24.10;58.40;;;;;;5116104;28;20481;-69
2022/06/25 12:46:18;;;;;;;0.32;0.13;;;24.10;58.50;;;;;;5128497;28;20047;-69
2022/06/25 12:48:44;;;;;;;0.52;0.20;;;24.10;58.50;;;;;;5122986;28;20115;-71
2022/06/25 12:51:11;;;;;;;1.58;0.40;;;24.10;58.50;;;;;;5116933;28;20118;-69
2022/06/25 12:53:38;;;;;;;0.50;0.22;;;24.00;58.50;;;;;;5107883;28;20491;-70
2022/06/25 12:56:05;;;;;;;0.47;0.30;;;24.00;58.50;;;;;;5107773;28;20076;-70
2022/06/25 12:58:41;;;;;;;0.55;0.20;;;24.00;58.50;;;;;;5107818;28;20497;-70
2022/06/25 13:01:27;;;;;;;0.50;0.20;;;24.00;58.50;;;;;;5091884;28;20047;-70
2022/06/25 13:03:53;;;;;;;0.30;0.20;;;24.10;58.60;;;;;;5107663;28;20114;-70
2022/06/25 13:06:20;;;;;;;1.48;0.20;;;24.10;58.60;;;;;;5111666;28;20035;-70
2022/06/25 13:08:46;;;;;;;0.75;0.13;;;24.10;58.50;;;;;;5127712;27;20068;-70
2022/06/25 13:13:59;;;;;;;0.65;0.20;;;24.10;58.50;;;;;;5130282;27;20305;-70
2022/06/25 13:16:25;;;;;;;0.55;0.20;;;24.10;58.50;;;;;;5128934;27;20386;-70
2022/06/25 13:18:51;;;;;;;0.73;0.20;;;24.10;58.50;;;;;;5130331;28;20047;-70
2022/06/25 13:21:17;;;;;;;0.68;0.28;;;24.10;58.50;;;;;;5129099;28;20402;-70
2022/06/25 13:23:43;;;;;;;0.60;0.20;;;24.10;58.50;;;;;;5129154;28;20486;-70
2022/06/25 13:26:09;;;;;;;0.28;0.10;;;24.10;58.50;;;;;;5129071;28;20039;-70
2022/06/25 13:28:34;;;;;;;0.20;0.10;;;24.10;58.50;;;;;;5128787;28;20505;-70
2022/06/25 13:31:00;;;;;;;0.47;0.28;;;24.20;58.40;;;;;;5128716;28;20110;-70